Time;durP1;ratioP1;P1;durP2;ratioP2;P2;SDS_P1;SDS_P2;PMS_P1;PMS_P2;Temp;Humidity;BMP_temperature;BMP_pressure;BME280_temperature;BME280_humidity;BME280_pressure;Samples;Min_cycle;Max_cycle;Signal;HPM_P1;HPM_P2
2022/04/19 00:00:10;;;;;;;5.00;4.37;;;8.20;99.90;;;;;;5046675;28;20479;-72
2022/04/19 00:03:02;;;;;;;5.67;5.17;;;8.20;99.90;;;;;;5053796;28;20494;-71
2022/04/19 00:05:50;;;;;;;7.60;5.80;;;8.10;99.90;;;;;;5050244;28;20454;-71
2022/04/19 00:08:38;;;;;;;6.37;5.33;;;8.10;99.90;;;;;;5056115;28;20600;-71
2022/04/19 00:11:27;;;;;;;7.40;5.60;;;8.10;99.90;;;;;;5051087;28;20570;-71
2022/04/19 00:14:16;;;;;;;5.30;4.80;;;8.00;99.90;;;;;;5048116;28;21024;-70
2022/04/19 00:17:05;;;;;;;7.27;5.30;;;7.90;99.90;;;;;;5049938;28;20504;-71
2022/04/19 00:19:54;;;;;;;8.53;5.60;;;7.90;99.90;;;;;;5052797;28;20577;-71
2022/04/19 00:22:43;;;;;;;6.07;5.47;;;7.90;99.90;;;;;;5039719;28;22060;-71
2022/04/19 00:25:31;;;;;;;6.43;5.83;;;7.80;99.90;;;;;;5043311;28;20445;-71
2022/04/19 00:28:19;;;;;;;6.20;5.33;;;7.80;99.90;;;;;;5051898;28;20589;-71
2022/04/19 00:31:07;;;;;;;5.97;5.37;;;7.80;99.90;;;;;;5047265;28;20455;-71
2022/04/19 00:33:55;;;;;;;5.90;5.10;;;7.70;99.90;;;;;;5046482;28;20484;-72
2022/04/19 00:36:45;;;;;;;4.87;4.47;;;7.70;99.90;;;;;;5045146;28;20473;-72
2022/04/19 00:39:33;;;;;;;6.00;5.27;;;7.60;99.90;;;;;;5046780;28;20568;-72
2022/04/19 00:42:21;;;;;;;5.63;5.13;;;7.60;99.90;;;;;;5046978;28;20531;-72
2022/04/19 00:45:09;;;;;;;5.23;4.80;;;7.50;99.90;;;;;;5039347;28;20603;-72
2022/04/19 00:47:58;;;;;;;5.57;5.07;;;7.50;99.90;;;;;;5046699;28;20562;-71
2022/04/19 00:50:47;;;;;;;6.10;5.50;;;7.50;99.90;;;;;;5047285;28;22025;-71
2022/04/19 00:53:37;;;;;;;7.20;5.53;;;7.40;99.90;;;;;;5050161;28;20478;-72
2022/04/19 00:56:25;;;;;;;5.60;5.00;;;7.40;99.90;;;;;;5047576;28;20447;-72
2022/04/19 00:59:13;;;;;;;6.50;4.90;;;7.30;99.90;;;;;;5045137;28;20558;-71
2022/04/19 01:02:02;;;;;;;6.00;5.50;;;7.30;99.90;;;;;;5048723;28;20915;-72
2022/04/19 01:04:50;;;;;;;6.00;5.40;;;7.30;99.90;;;;;;5049935;28;20493;-71
2022/04/19 01:07:39;;;;;;;5.87;5.37;;;7.20;99.90;;;;;;5050749;28;22691;-71
2022/04/19 01:10:30;;;;;;;7.00;5.20;;;7.20;99.90;;;;;;5048100;28;20477;-71
2022/04/19 01:13:17;;;;;;;6.30;5.70;;;7.20;99.90;;;;;;5048200;28;20623;-71
2022/04/19 01:16:06;;;;;;;7.17;6.30;;;7.20;99.90;;;;;;5048124;28;20446;-72
2022/04/19 01:18:55;;;;;;;8.27;6.13;;;7.10;99.90;;;;;;5044159;28;21056;-71
2022/04/19 01:21:45;;;;;;;8.07;7.00;;;7.10;99.90;;;;;;5049585;28;20561;-73
2022/04/19 01:24:33;;;;;;;7.53;6.73;;;7.20;99.90;;;;;;5047765;28;20494;-73
2022/04/19 01:27:22;;;;;;;7.30;6.23;;;7.10;99.90;;;;;;5050680;28;20544;-73
2022/04/19 01:30:11;;;;;;;8.40;6.50;;;7.10;99.90;;;;;;5048704;28;20477;-71
2022/04/19 01:32:59;;;;;;;8.30;6.93;;;7.10;99.90;;;;;;5046226;28;20967;-71
2022/04/19 01:35:47;;;;;;;9.13;6.77;;;7.10;99.90;;;;;;5047922;28;20467;-71
2022/04/19 01:38:37;;;;;;;7.63;6.83;;;7.10;99.90;;;;;;5052227;28;20912;-71
2022/04/19 01:41:25;;;;;;;10.30;7.17;;;7.00;99.90;;;;;;5042117;28;20589;-72
2022/04/19 01:44:14;;;;;;;8.00;7.00;;;7.00;99.90;;;;;;5036246;28;20625;-72
2022/04/19 01:47:05;;;;;;;10.63;6.67;;;7.00;99.90;;;;;;5040430;28;20462;-71
2022/04/19 01:49:53;;;;;;;10.07;6.83;;;6.90;99.90;;;;;;5047182;28;20903;-71
2022/04/19 01:52:43;;;;;;;8.20;7.10;;;6.90;99.90;;;;;;5046358;28;20479;-72
2022/04/19 01:55:33;;;;;;;8.07;6.20;;;6.80;99.90;;;;;;5046836;28;20459;-71
2022/04/19 01:58:21;;;;;;;7.63;6.83;;;6.70;99.90;;;;;;5045694;28;20953;-72
2022/04/19 02:01:09;;;;;;;6.93;6.13;;;6.70;99.90;;;;;;5046549;28;20473;-71
2022/04/19 02:03:57;;;;;;;8.10;7.00;;;6.70;99.90;;;;;;5048551;28;20474;-71
2022/04/19 02:06:46;;;;;;;8.00;6.77;;;6.60;99.90;;;;;;5043183;28;20450;-72
2022/04/19 02:09:34;;;;;;;7.67;6.87;;;6.60;99.90;;;;;;5046345;28;20569;-71
2022/04/19 02:12:24;;;;;;;7.80;7.00;;;6.60;99.90;;;;;;5047193;28;21099;-72
2022/04/19 02:15:14;;;;;;;7.53;6.73;;;6.60;99.90;;;;;;5042702;28;20550;-72
2022/04/19 02:18:04;;;;;;;8.50;6.50;;;6.50;99.90;;;;;;5040842;28;20450;-71
2022/04/19 02:20:52;;;;;;;7.37;6.67;;;6.50;99.90;;;;;;5042381;28;20576;-72
2022/04/19 02:23:43;;;;;;;7.37;6.67;;;6.40;99.90;;;;;;5042171;28;20621;-71
2022/04/19 02:26:32;;;;;;;8.63;6.77;;;6.40;99.90;;;;;;5044929;28;21109;-71
2022/04/19 02:29:25;;;;;;;8.17;7.37;;;6.40;99.90;;;;;;5044198;28;20564;-71
2022/04/19 02:32:13;;;;;;;8.73;7.50;;;6.40;99.90;;;;;;5043199;28;20623;-71
2022/04/19 02:35:02;;;;;;;12.50;7.93;;;6.40;99.90;;;;;;5047476;28;20447;-71
2022/04/19 02:37:52;;;;;;;12.97;8.80;;;6.30;99.90;;;;;;5049155;28;20585;-71
2022/04/19 02:40:40;;;;;;;10.83;8.47;;;6.30;99.90;;;;;;5042810;28;20628;-72
2022/04/19 02:43:30;;;;;;;11.00;8.30;;;6.30;99.90;;;;;;5046459;28;20502;-72
2022/04/19 02:46:19;;;;;;;8.87;7.63;;;6.30;99.90;;;;;;5050201;28;20523;-71
2022/04/19 02:49:08;;;;;;;12.73;8.63;;;6.20;99.90;;;;;;5052843;28;21494;-72
2022/04/19 02:51:56;;;;;;;8.67;7.77;;;6.20;99.90;;;;;;5044343;28;20610;-72
2022/04/19 02:54:45;;;;;;;10.97;9.07;;;6.20;99.90;;;;;;5046361;28;20506;-72
2022/04/19 02:57:33;;;;;;;10.23;8.00;;;6.20;99.90;;;;;;5047161;28;20557;-72
2022/04/19 03:00:21;;;;;;;12.70;8.67;;;6.20;99.90;;;;;;5046052;28;20481;-72
2022/04/19 03:03:12;;;;;;;13.90;9.50;;;6.10;99.90;;;;;;5047980;28;20889;-72
2022/04/19 03:06:01;;;;;;;15.17;9.70;;;6.10;99.90;;;;;;5045517;28;20460;-71
2022/04/19 03:08:49;;;;;;;19.50;11.10;;;6.00;99.90;;;;;;5048391;28;20510;-72
2022/04/19 03:11:37;;;;;;;15.33;10.23;;;6.00;99.90;;;;;;5053996;28;20454;-72
2022/04/19 03:14:26;;;;;;;13.27;10.40;;;6.00;99.90;;;;;;5044206;28;20627;-73
2022/04/19 03:17:14;;;;;;;14.73;10.43;;;5.90;99.90;;;;;;5046728;28;20588;-72
2022/04/19 03:20:07;;;;;;;13.40;10.07;;;5.90;99.90;;;;;;5051587;28;20472;-71
2022/04/19 03:29:08;;;;;;;15.30;10.07;;;5.90;99.90;;;;;;5048344;28;20579;-72
2022/04/19 03:31:56;;;;;;;12.40;9.73;;;5.80;99.90;;;;;;5042089;28;20532;-71
2022/04/19 03:34:44;;;;;;;14.00;10.30;;;5.80;99.90;;;;;;5049434;28;20622;-71
2022/04/19 03:37:33;;;;;;;15.50;10.90;;;5.80;99.90;;;;;;5054292;28;20614;-71
2022/04/19 03:40:21;;;;;;;16.07;10.77;;;5.80;99.90;;;;;;5037603;28;20642;-72
2022/04/19 03:43:10;;;;;;;16.20;11.00;;;5.70;99.90;;;;;;5046668;28;20485;-72
2022/04/19 03:45:58;;;;;;;15.30;11.00;;;5.70;99.90;;;;;;5049016;28;20575;-72
2022/04/19 03:48:46;;;;;;;16.90;11.30;;;5.60;99.90;;;;;;5049893;28;20565;-71
2022/04/19 03:51:35;;;;;;;12.50;10.00;;;5.60;99.90;;;;;;5050065;28;20998;-71
2022/04/19 03:54:24;;;;;;;13.10;9.50;;;5.60;99.90;;;;;;5044987;28;20510;-72
2022/04/19 03:57:12;;;;;;;13.80;10.00;;;5.50;99.90;;;;;;5049202;28;21052;-72
2022/04/19 04:00:00;;;;;;;14.57;11.57;;;5.50;99.90;;;;;;5053269;28;20575;-72
2022/04/19 04:02:49;;;;;;;12.37;9.60;;;5.50;99.90;;;;;;5050304;28;20470;-72
2022/04/19 04:05:37;;;;;;;20.57;12.10;;;5.40;99.90;;;;;;5045123;28;21164;-72
2022/04/19 04:08:26;;;;;;;13.63;10.37;;;5.40;99.90;;;;;;5051882;28;20474;-72
2022/04/19 04:11:15;;;;;;;15.37;11.07;;;5.40;99.90;;;;;;5049630;28;20459;-72
2022/04/19 04:14:03;;;;;;;16.10;10.80;;;5.40;99.90;;;;;;5047020;28;20487;-72
2022/04/19 04:16:51;;;;;;;16.90;9.83;;;5.30;99.90;;;;;;5051382;28;20458;-72
2022/04/19 04:19:39;;;;;;;13.17;10.90;;;5.30;99.90;;;;;;5053449;28;20632;-72
2022/04/19 04:22:28;;;;;;;16.70;11.27;;;5.40;99.90;;;;;;5047989;28;20586;-72
2022/04/19 04:25:16;;;;;;;18.47;12.50;;;5.40;99.90;;;;;;5051872;28;20567;-72
2022/04/19 04:28:06;;;;;;;16.87;11.40;;;5.30;99.90;;;;;;5053645;28;20454;-71
2022/04/19 04:30:54;;;;;;;23.63;12.67;;;5.40;99.90;;;;;;5051322;28;20453;-73
2022/04/19 04:33:42;;;;;;;15.40;10.70;;;5.30;99.90;;;;;;5048529;28;20490;-72
2022/04/19 04:36:31;;;;;;;18.30;11.83;;;5.30;99.90;;;;;;5056414;28;20955;-72
2022/04/19 04:39:19;;;;;;;21.70;12.53;;;5.30;99.90;;;;;;5045985;28;20566;-73
2022/04/19 04:42:07;;;;;;;17.20;11.33;;;5.30;99.90;;;;;;5045474;28;20613;-72
2022/04/19 04:44:58;;;;;;;16.20;11.50;;;5.30;99.90;;;;;;5047772;28;20486;-72
2022/04/19 04:50:52;;;;;;;16.67;11.67;;;5.30;99.90;;;;;;5046039;28;20700;-74
2022/04/19 04:53:40;;;;;;;15.93;11.53;;;5.30;99.90;;;;;;5041983;28;21010;-72
2022/04/19 04:56:28;;;;;;;18.73;11.33;;;5.30;99.90;;;;;;5051921;28;20482;-72
2022/04/19 04:59:16;;;;;;;14.37;10.93;;;5.30;99.90;;;;;;5048369;28;21124;-72
2022/04/19 05:02:07;;;;;;;17.83;11.80;;;5.30;99.90;;;;;;5042885;28;20913;-71
2022/04/19 05:04:55;;;;;;;14.20;10.30;;;5.30;99.90;;;;;;5045266;28;20473;-72
2022/04/19 05:07:43;;;;;;;13.23;10.67;;;5.30;99.90;;;;;;5040957;28;20481;-72
2022/04/19 05:10:31;;;;;;;13.97;10.57;;;5.40;99.90;;;;;;5046293;28;20477;-73
2022/04/19 05:13:19;;;;;;;14.87;10.40;;;5.40;99.90;;;;;;5049474;28;20585;-73
2022/04/19 05:16:08;;;;;;;17.20;12.73;;;5.40;99.90;;;;;;5033429;28;20461;-72
2022/04/19 05:18:58;;;;;;;16.43;11.40;;;5.40;99.90;;;;;;5039605;28;20536;-72
2022/04/19 05:21:46;;;;;;;14.70;11.27;;;5.50;99.90;;;;;;5040503;28;20599;-72
2022/04/19 05:24:34;;;;;;;16.63;11.87;;;5.50;99.90;;;;;;5047164;28;20536;-73
2022/04/19 05:27:22;;;;;;;14.50;10.33;;;5.50;99.90;;;;;;5037586;28;20943;-72
2022/04/19 05:30:11;;;;;;;13.73;10.53;;;5.60;99.90;;;;;;5036177;28;20559;-73
2022/04/19 05:32:59;;;;;;;14.20;10.30;;;5.70;99.90;;;;;;5043240;28;20569;-72
2022/04/19 05:35:49;;;;;;;11.87;9.93;;;5.70;99.90;;;;;;5035394;28;20562;-73
2022/04/19 05:38:37;;;;;;;11.90;9.50;;;5.80;99.90;;;;;;5032250;28;20471;-73
2022/04/19 05:41:29;;;;;;;13.43;10.00;;;5.90;99.90;;;;;;5041567;28;20581;-73
2022/04/19 05:44:17;;;;;;;14.30;9.20;;;6.00;99.90;;;;;;5040503;28;20886;-73
2022/04/19 05:47:05;;;;;;;12.53;10.17;;;6.10;99.90;;;;;;5031931;28;20485;-73
2022/04/19 05:49:53;;;;;;;11.77;10.53;;;6.10;99.90;;;;;;5037684;28;20555;-73
2022/04/19 05:52:43;;;;;;;10.50;9.40;;;6.20;99.90;;;;;;5037428;28;20526;-72
2022/04/19 05:55:32;;;;;;;11.80;10.43;;;6.30;99.90;;;;;;5031285;28;20538;-73
2022/04/19 05:58:20;;;;;;;11.80;9.77;;;6.30;99.90;;;;;;5036328;28;23778;-72
2022/04/19 06:01:09;;;;;;;11.87;10.60;;;6.40;99.90;;;;;;5038323;28;20455;-72
2022/04/19 06:07:03;;;;;;;11.07;8.90;;;6.60;99.90;;;;;;5032358;28;20442;-72
2022/04/19 06:09:52;;;;;;;10.73;9.20;;;6.70;99.90;;;;;;5039864;28;20945;-72
2022/04/19 06:12:41;;;;;;;9.23;8.23;;;6.80;99.90;;;;;;5037861;28;20474;-72
2022/04/19 06:15:31;;;;;;;9.53;8.40;;;6.90;99.90;;;;;;5039337;28;20451;-72
2022/04/19 06:18:19;;;;;;;8.87;7.47;;;7.00;99.90;;;;;;5035131;28;20447;-72
2022/04/19 06:21:07;;;;;;;9.80;8.80;;;7.00;99.90;;;;;;5031727;28;20451;-72
2022/04/19 06:23:55;;;;;;;8.80;7.90;;;7.10;99.90;;;;;;5033199;28;20867;-72
2022/04/19 06:26:45;;;;;;;11.53;8.93;;;7.20;99.90;;;;;;5034572;28;20494;-72
2022/04/19 06:29:33;;;;;;;9.67;8.57;;;7.20;99.90;;;;;;5031563;28;23044;-72
2022/04/19 06:32:21;;;;;;;10.10;8.43;;;7.30;99.90;;;;;;5034035;28;20644;-72
2022/04/19 06:35:10;;;;;;;8.30;7.40;;;7.40;99.90;;;;;;5033737;28;20558;-72
2022/04/19 06:37:58;;;;;;;8.70;7.80;;;7.40;99.90;;;;;;5045905;28;20530;-72
2022/04/19 06:40:46;;;;;;;8.00;7.17;;;7.40;99.90;;;;;;5037941;28;20455;-71
2022/04/19 06:43:37;;;;;;;11.00;8.00;;;7.50;99.90;;;;;;5046890;28;20502;-72
2022/04/19 06:46:25;;;;;;;10.20;7.67;;;7.50;99.90;;;;;;5047006;28;20530;-72
2022/04/19 06:49:13;;;;;;;8.40;7.60;;;7.60;99.90;;;;;;5039484;28;20469;-71
2022/04/19 06:52:05;;;;;;;8.63;7.83;;;7.60;99.90;;;;;;5039906;28;20537;-77
2022/04/19 06:54:53;;;;;;;8.40;7.50;;;7.60;99.90;;;;;;5043632;28;20517;-72
2022/04/19 06:57:42;;;;;;;11.43;7.77;;;7.70;99.90;;;;;;5032149;28;20466;-72
2022/04/19 07:00:31;;;;;;;8.83;6.97;;;7.70;99.90;;;;;;5043488;28;20480;-72
2022/04/19 07:03:19;;;;;;;8.13;7.33;;;7.80;99.90;;;;;;5046436;28;20462;-72
2022/04/19 07:06:07;;;;;;;10.40;7.90;;;7.90;99.90;;;;;;5041790;28;20542;-72
2022/04/19 07:08:56;;;;;;;7.67;6.83;;;7.90;99.90;;;;;;5040865;28;20605;-72
2022/04/19 07:11:44;;;;;;;9.63;6.90;;;8.00;99.90;;;;;;5035225;28;20523;-72
2022/04/19 07:14:32;;;;;;;7.37;6.67;;;8.00;99.90;;;;;;5042115;28;20530;-72
2022/04/19 07:17:21;;;;;;;7.43;6.60;;;8.10;99.90;;;;;;5042405;28;20545;-72
2022/04/19 07:26:41;;;;;;;7.47;6.30;;;8.40;99.90;;;;;;5039045;28;20680;-72
2022/04/19 07:29:29;;;;;;;7.73;6.73;;;8.50;99.90;;;;;;5041372;28;20478;-72
2022/04/19 07:32:17;;;;;;;7.07;6.37;;;8.60;99.90;;;;;;5046570;28;21449;-72
2022/04/19 07:35:08;;;;;;;7.20;6.50;;;8.60;99.90;;;;;;5037399;28;20749;-72
2022/04/19 07:37:56;;;;;;;7.10;6.50;;;8.70;99.90;;;;;;5042956;28;20456;-72
2022/04/19 07:40:45;;;;;;;6.97;6.30;;;8.80;99.90;;;;;;5051147;28;20591;-72
2022/04/19 07:43:33;;;;;;;5.40;4.90;;;8.90;99.90;;;;;;5030484;28;20490;-72
2022/04/19 07:46:21;;;;;;;7.33;6.00;;;8.90;99.90;;;;;;5037189;28;20463;-72
2022/04/19 07:49:10;;;;;;;5.87;5.27;;;9.00;99.90;;;;;;5036809;28;20478;-72
2022/04/19 07:51:59;;;;;;;5.20;4.70;;;9.10;99.90;;;;;;5038090;28;20458;-72
2022/04/19 07:54:47;;;;;;;6.10;5.23;;;9.20;99.90;;;;;;5032957;28;20482;-71
2022/04/19 07:57:36;;;;;;;7.10;5.50;;;9.20;99.90;;;;;;5038797;28;20455;-72
2022/04/19 08:00:27;;;;;;;9.03;6.50;;;9.30;99.90;;;;;;5039142;28;20488;-72
2022/04/19 08:03:15;;;;;;;6.10;5.10;;;9.50;99.90;;;;;;5035753;28;20634;-72
2022/04/19 08:06:03;;;;;;;4.93;4.50;;;9.60;99.90;;;;;;5037465;28;20453;-72
2022/04/19 08:08:53;;;;;;;5.07;4.20;;;9.70;99.90;;;;;;5042260;28;20478;-72
2022/04/19 08:11:41;;;;;;;3.90;3.60;;;9.80;99.90;;;;;;5041782;28;20450;-72
2022/04/19 08:14:29;;;;;;;4.43;4.00;;;10.00;99.90;;;;;;5039813;28;20478;-72
2022/04/19 08:17:18;;;;;;;6.30;4.20;;;10.20;99.90;;;;;;5034195;28;20556;-72
2022/04/19 08:20:07;;;;;;;3.90;3.07;;;10.30;99.90;;;;;;5037108;28;20573;-72
2022/04/19 08:22:55;;;;;;;4.70;2.93;;;10.40;99.90;;;;;;5032139;28;20501;-72
2022/04/19 08:25:45;;;;;;;3.43;3.13;;;10.50;99.90;;;;;;5039016;28;20819;-72
2022/04/19 08:28:33;;;;;;;3.80;3.13;;;10.70;99.90;;;;;;5049955;28;20520;-72
2022/04/19 08:31:21;;;;;;;3.47;3.17;;;10.80;99.90;;;;;;5038142;28;20552;-72
2022/04/19 08:34:10;;;;;;;3.17;2.80;;;11.00;99.90;;;;;;5038858;28;20557;-72
2022/04/19 08:37:03;;;;;;;3.73;2.70;;;11.00;99.90;;;;;;5039637;28;20466;-72
2022/04/19 08:39:51;;;;;;;3.50;3.20;;;11.10;99.90;;;;;;5042093;28;20503;-72
2022/04/19 08:42:41;;;;;;;3.40;3.03;;;11.30;99.90;;;;;;5037142;28;20501;-72
2022/04/19 08:45:29;;;;;;;6.50;3.17;;;11.30;99.90;;;;;;5042383;28;20510;-72
2022/04/19 08:48:19;;;;;;;3.80;3.40;;;11.40;99.90;;;;;;5041291;28;20896;-72
2022/04/19 08:51:09;;;;;;;3.80;3.47;;;11.60;99.90;;;;;;5042116;28;20447;-72
2022/04/19 09:00:11;;;;;;;5.27;3.97;;;11.80;99.90;;;;;;5036405;28;20572;-72
2022/04/19 09:03:01;;;;;;;4.17;3.77;;;11.90;99.90;;;;;;5038742;28;20513;-72
2022/04/19 09:05:51;;;;;;;3.90;3.60;;;11.90;99.90;;;;;;5040539;28;20474;-73
2022/04/19 09:08:39;;;;;;;4.50;3.90;;;12.00;99.90;;;;;;5034393;28;20478;-73
2022/04/19 09:11:34;;;;;;;4.23;3.70;;;12.10;99.90;;;;;;5039253;28;20457;-73
2022/04/19 09:14:23;;;;;;;4.90;4.40;;;12.20;99.90;;;;;;5035269;28;20480;-73
2022/04/19 09:17:13;;;;;;;5.37;4.40;;;12.30;99.90;;;;;;5038691;28;20476;-73
2022/04/19 09:20:12;;;;;;;4.40;4.00;;;12.50;99.90;;;;;;5033246;28;20502;-73
2022/04/19 09:23:03;;;;;;;4.90;4.47;;;12.50;99.90;;;;;;5036662;28;21236;-73
2022/04/19 09:25:52;;;;;;;4.60;4.17;;;12.60;99.90;;;;;;5037919;28;21045;-73
2022/04/19 09:28:41;;;;;;;6.13;4.70;;;12.70;99.90;;;;;;5037198;28;20521;-73
2022/04/19 09:31:31;;;;;;;5.47;4.70;;;12.90;99.90;;;;;;5039432;28;20573;-73
2022/04/19 09:34:36;;;;;;;5.50;4.23;;;13.00;99.90;;;;;;5028635;28;22291;-73
2022/04/19 09:37:25;;;;;;;5.30;4.30;;;13.10;99.90;;;;;;5033296;28;20835;-73
2022/04/19 09:40:14;;;;;;;5.80;4.70;;;13.20;99.90;;;;;;5030340;28;20477;-74
2022/04/19 09:43:11;;;;;;;6.27;5.00;;;13.30;99.90;;;;;;5033971;28;20474;-72
2022/04/19 09:46:03;;;;;;;5.80;4.80;;;13.40;99.90;;;;;;5033845;28;20489;-72
2022/04/19 09:48:51;;;;;;;6.80;4.43;;;13.50;99.90;;;;;;5039493;28;20795;-73
2022/04/19 09:51:40;;;;;;;5.90;4.63;;;13.60;99.90;;;;;;5036913;28;20451;-72
2022/04/19 09:54:29;;;;;;;5.80;4.40;;;13.70;99.90;;;;;;5030509;28;23921;-72
2022/04/19 09:57:17;;;;;;;6.20;4.93;;;13.80;99.90;;;;;;5035068;28;20457;-72
2022/04/19 10:00:07;;;;;;;5.33;4.63;;;13.80;99.90;;;;;;5030088;28;20574;-72
2022/04/19 10:09:14;;;;;;;5.00;4.37;;;14.10;99.90;;;;;;5041441;28;20561;-72
2022/04/19 10:12:03;;;;;;;4.13;3.60;;;14.20;99.90;;;;;;5034457;28;20607;-72
2022/04/19 10:14:54;;;;;;;4.30;3.90;;;14.20;99.90;;;;;;5035388;28;20478;-73
2022/04/19 10:17:43;;;;;;;4.40;4.00;;;14.30;99.90;;;;;;5044188;28;20804;-72
2022/04/19 10:20:32;;;;;;;3.97;3.57;;;14.40;99.90;;;;;;5041741;28;20482;-72
2022/04/19 10:23:34;;;;;;;5.13;3.97;;;14.40;99.90;;;;;;5037555;28;20520;-73
2022/04/19 10:26:25;;;;;;;4.70;4.20;;;14.50;99.90;;;;;;5038341;28;20449;-72
2022/04/19 10:29:18;;;;;;;4.83;3.23;;;14.60;99.90;;;;;;5037731;28;20475;-72
2022/04/19 10:32:09;;;;;;;3.80;3.50;;;14.60;99.90;;;;;;5037115;28;20542;-73
2022/04/19 10:35:02;;;;;;;4.30;3.60;;;14.70;99.90;;;;;;5035872;28;20478;-73
2022/04/19 10:38:20;;;;;;;6.33;4.77;;;14.80;99.90;;;;;;5037159;28;20442;-72
2022/04/19 10:41:08;;;;;;;7.00;5.50;;;14.80;99.90;;;;;;5036743;28;20564;-72
2022/04/19 10:44:28;;;;;;;3.30;3.00;;;14.90;99.90;;;;;;5041533;28;21150;-73
2022/04/19 10:47:18;;;;;;;5.43;4.93;;;14.90;99.90;;;;;;5046180;28;20465;-72
2022/04/19 10:50:07;;;;;;;4.43;3.10;;;15.00;99.90;;;;;;5031054;28;20556;-71
2022/04/19 10:53:00;;;;;;;4.00;2.97;;;15.10;99.90;;;;;;5028507;28;20502;-73
2022/04/19 10:56:01;;;;;;;2.77;2.57;;;15.20;99.90;;;;;;5038629;28;20524;-73
2022/04/19 10:58:49;;;;;;;2.80;2.43;;;15.30;99.90;;;;;;5040130;28;20630;-73
2022/04/19 11:01:38;;;;;;;3.73;2.10;;;15.30;99.90;;;;;;5035514;28;20458;-73
2022/04/19 11:04:39;;;;;;;2.87;2.63;;;15.40;99.90;;;;;;5043679;28;20626;-73
2022/04/19 11:07:43;;;;;;;2.70;2.50;;;15.40;99.90;;;;;;5044486;28;21016;-74
2022/04/19 11:10:40;;;;;;;2.67;2.47;;;15.50;99.90;;;;;;5044891;28;20477;-74
2022/04/19 11:13:31;;;;;;;3.50;2.80;;;15.60;99.90;;;;;;5042964;28;20912;-73
2022/04/19 11:16:37;;;;;;;2.50;2.30;;;15.70;99.90;;;;;;5038860;28;20601;-74
2022/04/19 11:19:29;;;;;;;2.50;2.30;;;15.80;99.90;;;;;;5039385;28;20984;-74
2022/04/19 11:22:29;;;;;;;3.57;2.17;;;15.80;99.90;;;;;;5045750;28;20545;-73
2022/04/19 11:25:37;;;;;;;2.13;1.90;;;15.80;99.90;;;;;;5040592;28;20523;-74
2022/04/19 11:28:28;;;;;;;2.23;2.03;;;15.90;99.90;;;;;;5052037;28;20678;-74
2022/04/19 11:31:17;;;;;;;2.20;2.00;;;15.90;99.90;;;;;;5056220;28;20477;-73
2022/04/19 11:34:11;;;;;;;2.43;2.23;;;16.00;99.90;;;;;;5049758;28;20482;-74
2022/04/19 11:37:03;;;;;;;3.70;2.03;;;16.10;99.90;;;;;;5042347;28;20447;-74
2022/04/19 11:49:09;;;;;;;3.23;2.60;;;16.50;99.90;;;;;;5042229;28;20469;-74
2022/04/19 11:52:00;;;;;;;2.40;1.70;;;16.50;99.90;;;;;;5046668;28;21123;-75
2022/04/19 11:54:55;;;;;;;2.23;2.00;;;16.60;99.90;;;;;;5035141;28;21085;-74
2022/04/19 11:57:43;;;;;;;1.80;1.60;;;16.70;99.90;;;;;;5039906;28;21302;-74
2022/04/19 12:00:32;;;;;;;2.00;1.67;;;16.80;99.90;;;;;;5042866;28;20467;-74
2022/04/19 12:03:26;;;;;;;1.77;1.67;;;16.80;99.90;;;;;;5046961;28;20479;-74
2022/04/19 12:06:21;;;;;;;2.27;1.73;;;16.90;99.90;;;;;;5042557;28;20479;-75
2022/04/19 12:09:15;;;;;;;2.40;2.20;;;17.00;99.90;;;;;;5042362;28;20565;-74
2022/04/19 12:12:07;;;;;;;1.70;1.60;;;17.10;99.90;;;;;;5037292;28;20457;-75
2022/04/19 12:14:55;;;;;;;3.33;1.57;;;17.20;99.90;;;;;;5042723;28;20478;-74
2022/04/19 12:17:45;;;;;;;1.50;1.40;;;17.30;99.90;;;;;;5043493;28;20471;-74
2022/04/19 12:20:43;;;;;;;1.80;1.37;;;17.40;99.90;;;;;;5039796;28;21175;-74
2022/04/19 12:23:31;;;;;;;1.50;1.40;;;17.60;99.90;;;;;;5042363;28;20942;-74
2022/04/19 12:26:22;;;;;;;1.70;1.40;;;17.50;99.90;;;;;;5036064;28;20490;-74
2022/04/19 12:29:13;;;;;;;1.40;1.30;;;17.60;99.90;;;;;;5024304;28;20633;-75
2022/04/19 12:32:03;;;;;;;1.27;1.20;;;17.60;99.90;;;;;;5024427;28;20478;-75
2022/04/19 12:34:51;;;;;;;3.23;1.73;;;17.70;99.90;;;;;;5036266;28;20522;-75
2022/04/19 12:37:40;;;;;;;1.27;1.10;;;17.80;99.90;;;;;;5036428;28;20465;-74
2022/04/19 12:40:28;;;;;;;1.37;1.20;;;17.90;99.90;;;;;;5037112;28;20509;-74
2022/04/19 12:43:18;;;;;;;2.10;1.20;;;18.00;99.90;;;;;;5042060;28;20549;-74
2022/04/19 12:46:07;;;;;;;1.40;1.30;;;18.20;99.90;;;;;;5033609;28;20565;-74
2022/04/19 12:48:56;;;;;;;1.20;1.10;;;18.30;99.90;;;;;;5035912;28;20529;-73
2022/04/19 12:51:57;;;;;;;1.90;0.80;;;18.40;99.90;;;;;;5036927;28;20795;-74
2022/04/19 12:54:50;;;;;;;2.03;1.20;;;18.40;99.90;;;;;;5042405;28;20485;-75
2022/04/19 12:57:41;;;;;;;2.80;1.10;;;18.50;99.20;;;;;;5049676;28;20469;-73
2022/04/19 13:00:31;;;;;;;3.43;1.10;;;18.50;98.70;;;;;;5042665;28;20479;-75
2022/04/19 13:03:20;;;;;;;0.90;0.90;;;18.60;99.10;;;;;;5038123;28;20470;-74
2022/04/19 13:12:24;;;;;;;0.80;0.80;;;19.10;96.50;;;;;;5045757;28;20448;-75
2022/04/19 13:15:13;;;;;;;1.90;1.20;;;19.10;94.10;;;;;;5037373;28;20461;-74
2022/04/19 13:18:03;;;;;;;0.90;0.80;;;19.30;92.60;;;;;;5039536;28;20456;-74
2022/04/19 13:20:51;;;;;;;1.37;0.73;;;19.40;93.60;;;;;;5040104;28;20450;-74
2022/04/19 13:23:40;;;;;;;1.27;1.17;;;19.50;89.50;;;;;;5039208;28;20518;-75
2022/04/19 13:26:31;;;;;;;1.70;1.07;;;19.60;89.20;;;;;;5044453;28;20584;-74
2022/04/19 13:29:19;;;;;;;1.20;1.10;;;19.80;90.50;;;;;;5047470;28;20844;-76
2022/04/19 13:32:08;;;;;;;2.10;1.20;;;20.00;87.30;;;;;;5044920;28;20637;-75
2022/04/19 13:34:58;;;;;;;1.10;0.87;;;20.10;80.90;;;;;;5047639;28;20856;-74
2022/04/19 13:40:52;;;;;;;1.03;1.03;;;20.30;80.10;;;;;;5047987;28;20463;-75
2022/04/19 13:43:40;;;;;;;1.70;1.30;;;20.50;81.50;;;;;;5045888;28;20577;-75
2022/04/19 13:46:29;;;;;;;1.07;1.07;;;20.80;80.60;;;;;;5047390;28;20473;-74
2022/04/19 13:49:18;;;;;;;3.73;1.10;;;20.70;75.40;;;;;;5035624;28;20565;-74
2022/04/19 13:52:08;;;;;;;1.20;1.07;;;21.00;75.50;;;;;;5040429;28;20462;-74
2022/04/19 13:54:56;;;;;;;2.33;1.30;;;21.30;76.70;;;;;;5048107;28;20588;-74
2022/04/19 13:57:45;;;;;;;1.40;1.30;;;21.50;72.20;;;;;;5044180;28;20454;-74
2022/04/19 14:00:33;;;;;;;1.13;1.13;;;21.80;72.30;;;;;;5038043;28;20474;-76
2022/04/19 14:03:21;;;;;;;2.33;1.37;;;21.80;71.60;;;;;;5039329;28;20697;-75
2022/04/19 14:06:15;;;;;;;2.60;1.40;;;22.00;71.70;;;;;;5042974;28;20474;-75
2022/04/19 14:09:05;;;;;;;1.50;1.23;;;22.10;71.40;;;;;;5036453;28;20501;-75
2022/04/19 14:11:54;;;;;;;1.60;1.50;;;21.80;68.60;;;;;;5032902;28;20457;-76
2022/04/19 14:14:43;;;;;;;1.80;1.70;;;22.00;70.10;;;;;;5035715;28;20552;-75
2022/04/19 14:17:31;;;;;;;4.57;1.80;;;21.90;69.50;;;;;;5027614;28;20442;-76
2022/04/19 14:20:19;;;;;;;1.97;1.70;;;21.90;70.00;;;;;;5029966;28;20465;-76
2022/04/19 14:23:08;;;;;;;2.87;1.90;;;21.80;69.40;;;;;;5030196;28;20843;-75
2022/04/19 14:25:59;;;;;;;1.83;1.73;;;21.80;70.30;;;;;;5036221;28;21009;-76
2022/04/19 14:34:59;;;;;;;2.90;2.70;;;21.50;70.60;;;;;;5036220;28;20973;-75
2022/04/19 14:37:50;;;;;;;3.13;2.83;;;21.40;72.50;;;;;;5026788;28;20465;-75
2022/04/19 14:40:38;;;;;;;3.53;3.20;;;21.40;74.30;;;;;;5027629;28;20466;-75
2022/04/19 14:43:28;;;;;;;2.87;2.67;;;21.20;72.00;;;;;;5030245;28;22420;-75
2022/04/19 14:46:16;;;;;;;4.17;3.77;;;21.10;76.90;;;;;;5034336;28;20450;-76
2022/04/19 14:49:04;;;;;;;4.10;3.03;;;21.40;72.90;;;;;;5031086;28;21029;-75
2022/04/19 14:54:58;;;;;;;3.37;3.10;;;21.40;73.70;;;;;;5024493;28;20561;-76
2022/04/19 14:57:47;;;;;;;3.43;3.07;;;21.30;71.60;;;;;;5031465;28;20455;-75
2022/04/19 15:00:36;;;;;;;4.17;3.30;;;21.20;72.40;;;;;;5036642;28;20571;-76
2022/04/19 15:03:24;;;;;;;3.37;3.13;;;21.10;72.90;;;;;;5031548;28;20505;-75
2022/04/19 15:06:13;;;;;;;4.60;3.60;;;21.10;74.40;;;;;;5040830;28;22242;-76
2022/04/19 15:09:01;;;;;;;3.90;3.60;;;20.90;75.40;;;;;;5028581;28;20483;-77
2022/04/19 15:11:54;;;;;;;3.77;3.47;;;20.60;76.40;;;;;;5034487;28;20886;-75
2022/04/19 15:14:42;;;;;;;4.43;3.40;;;20.30;77.70;;;;;;5043171;28;20584;-75
2022/04/19 15:17:32;;;;;;;3.80;3.43;;;19.90;78.90;;;;;;5037747;28;20462;-74
2022/04/19 15:20:20;;;;;;;4.83;4.10;;;19.50;78.60;;;;;;5038032;28;20513;-75
2022/04/19 15:23:08;;;;;;;4.50;4.10;;;19.20;80.00;;;;;;5032667;28;20545;-75
2022/04/19 15:25:56;;;;;;;3.57;3.27;;;19.10;81.10;;;;;;5033303;28;20858;-75
2022/04/19 15:28:45;;;;;;;3.60;3.30;;;18.80;83.30;;;;;;5041864;28;20489;-73
2022/04/19 15:31:33;;;;;;;4.23;3.90;;;18.70;82.90;;;;;;5040850;28;20459;-73
2022/04/19 15:34:23;;;;;;;3.33;3.03;;;18.40;83.40;;;;;;5039197;28;20525;-73
2022/04/19 15:37:15;;;;;;;4.60;3.67;;;18.20;84.60;;;;;;5033954;28;20468;-73
2022/04/19 15:40:04;;;;;;;4.23;3.83;;;17.90;85.60;;;;;;5038568;28;20519;-72
2022/04/19 15:42:53;;;;;;;5.93;3.40;;;17.60;84.40;;;;;;5046176;28;20901;-73